Time;durP1;ratioP1;P1;durP2;ratioP2;P2;SDS_P1;SDS_P2;PMS_P1;PMS_P2;Temp;Humidity;BMP_temperature;BMP_pressure;BME280_temperature;BME280_humidity;BME280_pressure;Samples;Min_cycle;Max_cycle;Signal;HPM_P1;HPM_P2
2023/12/24 00:01:00;;;;;;;;;;;;;;;9.37;100.00;100778.38;5027439;28;20024;-75
2023/12/24 00:03:25;;;;;;;;;;;;;;;9.35;100.00;100780.31;5022883;28;20451;-75
2023/12/24 00:05:50;;;;;;;;;;;;;;;9.36;100.00;100766.78;5022005;28;20355;-76
2023/12/24 00:08:16;;;;;;;;;;;;;;;9.47;100.00;100779.41;5027747;28;20342;-77
2023/12/24 00:10:41;;;;;;;;;;;;;;;9.47;100.00;100770.50;5026918;28;20011;-75
2023/12/24 00:13:06;;;;;;;;;;;;;;;9.44;100.00;100775.13;5012190;28;20562;-76
2023/12/24 00:15:31;;;;;;;;;;;;;;;9.42;100.00;100789.59;5026963;28;20384;-76
2023/12/24 00:17:57;;;;;;;;;;;;;;;9.47;100.00;100790.13;5028204;28;20442;-76
2023/12/24 00:20:22;;;;;;;;;;;;;;;9.52;100.00;100800.53;5029358;28;20399;-75
2023/12/24 00:23:02;;;;;;;;;;;;;;;9.51;100.00;100794.28;5016537;28;20035;-76
2023/12/24 00:25:27;;;;;;;;;;;;;;;9.62;100.00;100796.16;5026459;28;19925;-74
2023/12/24 00:27:52;;;;;;;;;;;;;;;9.60;100.00;100793.63;5024286;28;19928;-76
2023/12/24 00:30:18;;;;;;;;;;;;;;;9.56;100.00;100773.38;5014398;28;19920;-75
2023/12/24 00:32:43;;;;;;;;;;;;;;;9.56;100.00;100767.13;5024929;28;19963;-77
2023/12/24 00:35:08;;;;;;;;;;;;;;;9.52;100.00;100779.91;5022453;28;19925;-77
2023/12/24 00:37:34;;;;;;;;;;;;;;;9.68;100.00;100749.25;5026720;28;19921;-77
2023/12/24 00:39:59;;;;;;;;;;;;;;;9.62;100.00;100763.16;5022616;28;19968;-75
2023/12/24 00:42:25;;;;;;;;;;;;;;;9.57;100.00;100736.69;5023615;28;20007;-76
2023/12/24 00:44:50;;;;;;;;;;;;;;;9.57;100.00;100739.34;5018586;28;19932;-74
2023/12/24 00:47:15;;;;;;;;;;;;;;;9.50;100.00;100719.38;5026266;28;19955;-78
2023/12/24 00:49:40;;;;;;;;;;;;;;;9.57;100.00;100720.59;5023560;28;20252;-76
2023/12/24 00:52:06;;;;;;;;;;;;;;;9.44;100.00;100701.91;5020068;28;20401;-77
2023/12/24 00:54:31;;;;;;;;;;;;;;;9.56;100.00;100692.06;5022878;28;20500;-75
2023/12/24 00:56:56;;;;;;;;;;;;;;;9.56;100.00;100692.94;5025888;28;20399;-75
2023/12/24 00:59:21;;;;;;;;;;;;;;;9.45;100.00;100677.69;5026468;28;19970;-76
2023/12/24 01:01:47;;;;;;;;;;;;;;;9.50;100.00;100660.41;5025179;28;19935;-77
2023/12/24 01:04:12;;;;;;;;;;;;;;;9.49;100.00;100656.84;5024778;28;20049;-75
2023/12/24 01:06:37;;;;;;;;;;;;;;;9.49;100.00;100670.25;5022393;28;19926;-76
2023/12/24 01:09:03;;;;;;;;;;;;;;;9.47;100.00;100642.72;5025175;28;20032;-75
2023/12/24 01:11:28;;;;;;;;;;;;;;;9.45;100.00;100664.28;5026531;28;19929;-79
2023/12/24 01:13:53;;;;;;;;;;;;;;;9.58;100.00;100671.38;5027405;28;19952;-76
2023/12/24 01:16:18;;;;;;;;;;;;;;;9.50;100.00;100658.56;5003950;28;19927;-76
2023/12/24 01:18:44;;;;;;;;;;;;;;;9.44;100.00;100662.56;5008263;28;19921;-77
2023/12/24 01:21:09;;;;;;;;;;;;;;;9.45;100.00;100645.53;5026200;28;19928;-79
2023/12/24 01:23:34;;;;;;;;;;;;;;;9.45;100.00;100655.38;5017751;28;19986;-76
2023/12/24 01:25:59;;;;;;;;;;;;;;;9.39;100.00;100639.78;5013635;28;20007;-74
2023/12/24 01:28:24;;;;;;;;;;;;;;;9.41;100.00;100640.50;5033016;28;20386;-75
2023/12/24 01:30:50;;;;;;;;;;;;;;;9.37;100.00;100652.44;5027405;28;20313;-78
2023/12/24 01:33:15;;;;;;;;;;;;;;;9.31;100.00;100656.41;5012869;28;20424;-77
2023/12/24 01:35:43;;;;;;;;;;;;;;;9.23;100.00;100665.03;5011138;28;20410;-76
2023/12/24 01:38:08;;;;;;;;;;;;;;;9.13;100.00;100659.53;5016881;28;20349;-76
2023/12/24 01:40:33;;;;;;;;;;;;;;;8.95;100.00;100660.91;5039151;28;19928;-74
2023/12/24 01:42:59;;;;;;;;;;;;;;;8.87;100.00;100664.16;5038101;28;19921;-78
2023/12/24 01:45:24;;;;;;;;;;;;;;;8.73;100.00;100675.00;5033765;28;19920;-76
2023/12/24 01:47:49;;;;;;;;;;;;;;;8.67;100.00;100666.44;5021199;28;19932;-75
2023/12/24 01:50:14;;;;;;;;;;;;;;;8.53;100.00;100671.94;5034553;28;19928;-75
2023/12/24 01:52:40;;;;;;;;;;;;;;;8.50;100.00;100673.00;5021612;28;19929;-74
2023/12/24 01:55:06;;;;;;;;;;;;;;;8.38;100.00;100672.03;5035429;28;19970;-75
2023/12/24 01:57:31;;;;;;;;;;;;;;;8.36;100.00;100657.06;5036518;28;19959;-75
2023/12/24 01:59:57;;;;;;;;;;;;;;;8.31;100.00;100657.41;5035304;28;19921;-76
2023/12/24 02:02:22;;;;;;;;;;;;;;;8.30;100.00;100655.69;5036981;28;20381;-75
2023/12/24 02:04:47;;;;;;;;;;;;;;;8.24;100.00;100650.78;5037036;28;19916;-75
2023/12/24 02:07:12;;;;;;;;;;;;;;;8.24;100.00;100650.78;5017944;28;20021;-74
2023/12/24 02:09:38;;;;;;;;;;;;;;;8.22;100.00;100650.88;5033225;28;19929;-74
2023/12/24 02:12:03;;;;;;;;;;;;;;;8.20;100.00;100649.28;5033977;28;19955;-75
2023/12/24 02:14:28;;;;;;;;;;;;;;;8.21;100.00;100634.94;5034679;28;20406;-73
2023/12/24 02:16:55;;;;;;;;;;;;;;;8.15;100.00;100638.03;5033102;28;19929;-73
2023/12/24 02:19:20;;;;;;;;;;;;;;;8.14;100.00;100631.84;5031380;28;19921;-73
2023/12/24 02:21:45;;;;;;;;;;;;;;;8.11;100.00;100614.19;5029814;28;20063;-73
2023/12/24 02:24:10;;;;;;;;;;;;;;;8.11;100.00;100614.19;5032112;28;20016;-73
2023/12/24 02:27:02;;;;;;;;;;;;;;;8.11;100.00;100610.69;5014050;28;19929;-72
2023/12/24 02:29:28;;;;;;;;;;;;;;;8.10;100.00;100604.47;5009755;28;19921;-73
2023/12/24 02:31:56;;;;;;;;;;;;;;;8.14;100.00;100599.78;5031749;28;19935;-72
2023/12/24 02:34:21;;;;;;;;;;;;;;;8.16;100.00;100597.84;5031329;28;19928;-72
2023/12/24 02:36:47;;;;;;;;;;;;;;;8.18;100.00;100587.91;5037102;28;19917;-73
2023/12/24 02:39:12;;;;;;;;;;;;;;;8.18;100.00;100587.91;5035351;28;19982;-73
2023/12/24 02:41:37;;;;;;;;;;;;;;;8.19;100.00;100578.03;5035493;28;20015;-72
2023/12/24 02:44:02;;;;;;;;;;;;;;;8.20;100.00;100579.75;5034804;28;20023;-72
2023/12/24 02:46:28;;;;;;;;;;;;;;;8.18;100.00;100560.28;5035916;28;19921;-73
2023/12/24 02:48:53;;;;;;;;;;;;;;;8.18;100.00;100554.94;5038144;28;19924;-72
2023/12/24 02:51:18;;;;;;;;;;;;;;;8.19;100.00;100545.94;5036961;28;19928;-72
2023/12/24 02:53:43;;;;;;;;;;;;;;;8.24;100.00;100547.31;5034763;28;19935;-73
2023/12/24 02:56:08;;;;;;;;;;;;;;;8.25;100.00;100538.31;5037850;28;19916;-73
2023/12/24 02:58:34;;;;;;;;;;;;;;;8.25;100.00;100542.81;5034928;28;19921;-72
2023/12/24 03:00:59;;;;;;;;;;;;;;;8.24;100.00;100525.91;5029669;28;20019;-72
2023/12/24 03:03:24;;;;;;;;;;;;;;;8.25;100.00;100526.78;5034602;28;19924;-73
2023/12/24 03:05:49;;;;;;;;;;;;;;;8.28;100.00;100520.34;5034744;28;19925;-73
2023/12/24 03:08:15;;;;;;;;;;;;;;;8.23;100.00;100524.19;5035618;28;19964;-72
2023/12/24 03:10:40;;;;;;;;;;;;;;;8.33;100.00;100524.41;5037941;28;20012;-74
2023/12/24 03:13:05;;;;;;;;;;;;;;;8.32;100.00;100520.03;5035128;28;20378;-73
2023/12/24 03:15:31;;;;;;;;;;;;;;;8.35;100.00;100501.03;5015515;28;19971;-74
2023/12/24 03:17:56;;;;;;;;;;;;;;;8.32;100.00;100500.44;5031935;28;20002;-72
2023/12/24 03:20:21;;;;;;;;;;;;;;;8.31;100.00;100488.88;5027980;28;19924;-73
2023/12/24 03:22:46;;;;;;;;;;;;;;;8.36;100.00;100472.50;5031757;28;19925;-73
2023/12/24 03:25:11;;;;;;;;;;;;;;;8.36;100.00;100476.00;5028521;28;19928;-72
2023/12/24 03:27:37;;;;;;;;;;;;;;;8.37;100.00;100467.00;5032522;28;19963;-73
2023/12/24 03:30:02;;;;;;;;;;;;;;;8.35;100.00;100460.06;5026073;28;19971;-73
2023/12/24 03:32:27;;;;;;;;;;;;;;;8.38;100.00;100451.84;5034187;28;20007;-73
2023/12/24 03:34:52;;;;;;;;;;;;;;;8.35;100.00;100441.34;5010364;28;19947;-73
2023/12/24 03:37:18;;;;;;;;;;;;;;;8.35;100.00;100436.00;5023839;28;19931;-73
2023/12/24 03:39:43;;;;;;;;;;;;;;;8.38;100.00;100439.28;5030417;28;19925;-72
2023/12/24 03:42:09;;;;;;;;;;;;;;;8.38;100.00;100425.06;5026864;28;20424;-73
2023/12/24 03:44:34;;;;;;;;;;;;;;;8.41;100.00;100419.50;5028566;28;19920;-73
2023/12/24 03:47:00;;;;;;;;;;;;;;;8.39;100.00;100414.25;5024636;28;19920;-73
2023/12/24 03:49:25;;;;;;;;;;;;;;;8.38;100.00;100390.31;5012206;28;19921;-71
2023/12/24 03:51:50;;;;;;;;;;;;;;;8.39;100.00;100359.91;5024023;28;19956;-75
2023/12/24 03:54:16;;;;;;;;;;;;;;;8.40;100.00;100262.63;5005354;28;19920;-73
2023/12/24 03:56:41;;;;;;;;;;;;;;;8.43;100.00;100234.78;5025176;28;20420;-74
2023/12/24 03:59:07;;;;;;;;;;;;;;;8.43;100.00;100200.00;5028427;28;19929;-74
2023/12/24 04:01:32;;;;;;;;;;;;;;;8.45;100.00;100173.97;5026285;28;19928;-73
2023/12/24 04:03:57;;;;;;;;;;;;;;;8.47;100.00;100151.50;5025571;28;19928;-73
2023/12/24 04:06:22;;;;;;;;;;;;;;;8.50;100.00;100121.00;5028199;28;19917;-73
2023/12/24 04:08:48;;;;;;;;;;;;;;;8.48;100.00;100107.72;5027359;28;19924;-73
2023/12/24 04:11:13;;;;;;;;;;;;;;;8.51;100.00;100096.78;5020843;28;19924;-74
2023/12/24 04:13:39;;;;;;;;;;;;;;;8.54;100.00;100080.47;5025515;28;19921;-74
2023/12/24 04:16:04;;;;;;;;;;;;;;;8.57;100.00;100071.38;5023541;28;19921;-73
2023/12/24 04:18:29;;;;;;;;;;;;;;;8.56;100.00;100077.69;5024261;28;19921;-75
2023/12/24 04:20:55;;;;;;;;;;;;;;;8.55;100.00;100071.47;5026766;28;19935;-73
2023/12/24 04:23:20;;;;;;;;;;;;;;;8.61;100.00;100072.78;5021766;28;19927;-75
2023/12/24 04:25:45;;;;;;;;;;;;;;;8.62;100.00;100069.13;5028331;28;19925;-73
2023/12/24 04:28:10;;;;;;;;;;;;;;;8.63;100.00;100088.75;5026321;28;19964;-73
2023/12/24 04:30:35;;;;;;;;;;;;;;;8.63;100.00;100091.41;5023603;28;20121;-72
2023/12/24 04:33:01;;;;;;;;;;;;;;;8.62;100.00;100095.91;5024624;28;20342;-74
2023/12/24 04:35:26;;;;;;;;;;;;;;;8.52;100.00;100077.06;5026508;28;20266;-74
2023/12/24 04:37:51;;;;;;;;;;;;;;;8.68;100.00;100110.63;5031754;28;20410;-75
2023/12/24 04:40:16;;;;;;;;;;;;;;;8.70;100.00;100114.88;5023349;28;20465;-73
2023/12/24 04:42:41;;;;;;;;;;;;;;;8.70;100.00;100120.22;5023982;28;19963;-73
2023/12/24 04:45:07;;;;;;;;;;;;;;;8.70;100.00;100117.53;5043559;22;19937;-75
2023/12/24 04:47:32;;;;;;;;;;;;;;;8.72;100.00;100124.59;5025955;28;20016;-75
2023/12/24 04:49:58;;;;;;;;;;;;;;;8.73;100.00;100113.78;5039881;28;19925;-72
2023/12/24 04:52:23;;;;;;;;;;;;;;;8.73;100.00;100126.31;5028837;28;19955;-74
2023/12/24 04:54:48;;;;;;;;;;;;;;;8.75;100.00;100127.88;5028016;28;19925;-73
2023/12/24 04:57:14;;;;;;;;;;;;;;;8.74;100.00;100134.19;5029507;28;19972;-75
2023/12/24 04:59:39;;;;;;;;;;;;;;;8.77;100.00;100133.09;5010050;28;20127;-73
2023/12/24 05:02:04;;;;;;;;;;;;;;;8.75;100.00;100133.22;5024755;28;19968;-75
2023/12/24 05:04:32;;;;;;;;;;;;;;;8.81;100.00;100131.88;5027727;28;20003;-73
2023/12/24 05:06:58;;;;;;;;;;;;;;;8.83;100.00;100130.78;5011619;28;19924;-72
2023/12/24 05:09:23;;;;;;;;;;;;;;;8.82;100.00;100123.72;5026888;28;20302;-73
2023/12/24 05:11:48;;;;;;;;;;;;;;;8.80;100.00;100123.00;5041224;28;19960;-75
2023/12/24 05:14:13;;;;;;;;;;;;;;;8.82;100.00;100123.72;5010560;28;20023;-74
2023/12/24 05:16:38;;;;;;;;;;;;;;;8.83;100.00;100127.25;5025617;28;20011;-74
2023/12/24 05:19:04;;;;;;;;;;;;;;;8.92;100.00;100131.00;5026015;28;19928;-72
2023/12/24 05:21:29;;;;;;;;;;;;;;;8.92;100.00;100133.69;5012255;28;20048;-72
2023/12/24 05:23:55;;;;;;;;;;;;;;;8.93;100.00;100120.16;5027761;28;19938;-74
2023/12/24 05:26:20;;;;;;;;;;;;;;;8.94;100.00;100121.84;5027151;28;20506;-73
2023/12/24 05:28:45;;;;;;;;;;;;;;;8.92;100.00;100131.00;5028114;28;19925;-73
2023/12/24 05:31:10;;;;;;;;;;;;;;;8.92;100.00;100128.31;5031540;28;19999;-75
2023/12/24 05:33:36;;;;;;;;;;;;;;;8.90;100.00;100124.91;5015992;28;19924;-74
2023/12/24 05:36:01;;;;;;;;;;;;;;;8.96;100.00;100135.13;5012958;28;19925;-73
2023/12/24 05:38:26;;;;;;;;;;;;;;;8.98;100.00;100139.38;5031490;28;19921;-73
2023/12/24 05:40:51;;;;;;;;;;;;;;;8.96;100.00;100130.63;5017403;28;20523;-73
2023/12/24 05:43:16;;;;;;;;;;;;;;;8.85;100.00;100114.59;5045729;28;20015;-74
2023/12/24 05:45:42;;;;;;;;;;;;;;;8.99;100.00;100127.69;5034646;28;19924;-73
2023/12/24 05:48:07;;;;;;;;;;;;;;;8.98;100.00;100125.97;5032375;28;19993;-73
2023/12/24 05:50:32;;;;;;;;;;;;;;;9.00;100.00;100131.22;5031957;28;19967;-73
2023/12/24 05:52:57;;;;;;;;;;;;;;;9.02;100.00;100123.06;5032393;28;19920;-74
2023/12/24 05:55:22;;;;;;;;;;;;;;;9.03;100.00;100120.25;5036824;28;19916;-74
2023/12/24 05:57:48;;;;;;;;;;;;;;;9.02;100.00;100107.00;5032104;28;20224;-73
2023/12/24 06:00:13;;;;;;;;;;;;;;;9.00;100.00;100115.16;5026439;28;19964;-73
2023/12/24 06:02:38;;;;;;;;;;;;;;;9.10;100.00;100102.69;5009244;28;20408;-73
2023/12/24 06:05:04;;;;;;;;;;;;;;;9.06;100.00;100109.28;5010610;28;20516;-73
2023/12/24 06:07:29;;;;;;;;;;;;;;;9.09;100.00;100111.69;5031455;28;19921;-74
2023/12/24 06:09:54;;;;;;;;;;;;;;;9.14;100.00;100112.16;5033405;28;19920;-73
2023/12/24 06:12:19;;;;;;;;;;;;;;;9.13;100.00;100112.31;5010884;28;19960;-73
2023/12/24 06:14:44;;;;;;;;;;;;;;;9.15;100.00;100110.34;5009340;28;20003;-73
2023/12/24 06:17:10;;;;;;;;;;;;;;;9.13;100.00;100110.47;5008715;28;19928;-74
2023/12/24 06:19:35;;;;;;;;;;;;;;;9.17;100.00;100104.88;5009086;28;19926;-74
2023/12/24 06:22:01;;;;;;;;;;;;;;;9.15;100.00;100099.63;5025215;28;19925;-73
2023/12/24 06:24:26;;;;;;;;;;;;;;;9.20;100.00;100105.44;5028260;28;20354;-73
2023/12/24 06:26:51;;;;;;;;;;;;;;;9.18;100.00;100095.84;5024117;28;20425;-74
2023/12/24 06:29:17;;;;;;;;;;;;;;;9.19;100.00;100098.38;5026291;28;19975;-74
2023/12/24 06:31:42;;;;;;;;;;;;;;;9.20;100.00;100094.72;5026862;28;19971;-74
2023/12/24 06:34:07;;;;;;;;;;;;;;;9.20;100.00;100091.22;5011487;28;19964;-74
2023/12/24 06:36:32;;;;;;;;;;;;;;;9.24;100.00;100090.81;5010145;28;19920;-73
2023/12/24 06:38:57;;;;;;;;;;;;;;;9.22;100.00;100083.91;5010307;28;19921;-76
2023/12/24 06:41:23;;;;;;;;;;;;;;;9.26;100.00;100074.63;5029086;28;19931;-74
2023/12/24 06:43:48;;;;;;;;;;;;;;;9.25;100.00;100087.16;5012403;28;19970;-75
2023/12/24 06:46:14;;;;;;;;;;;;;;;9.26;100.00;100077.31;5000523;28;19964;-74
2023/12/24 06:48:39;;;;;;;;;;;;;;;9.25;100.00;100073.78;5017497;28;20069;-74
2023/12/24 06:51:04;;;;;;;;;;;;;;;9.22;100.00;100071.34;5026352;28;20213;-74
2023/12/24 06:53:29;;;;;;;;;;;;;;;9.27;100.00;100065.63;5028986;28;19917;-75
2023/12/24 06:55:55;;;;;;;;;;;;;;;9.29;100.00;100077.91;5034392;28;19917;-75
2023/12/24 06:58:20;;;;;;;;;;;;;;;9.25;100.00;100076.44;5028461;28;19959;-76
2023/12/24 07:00:45;;;;;;;;;;;;;;;9.26;100.00;100082.69;5033795;28;20393;-75
2023/12/24 07:03:11;;;;;;;;;;;;;;;9.27;100.00;100077.16;5010277;28;19983;-75
2023/12/24 07:05:38;;;;;;;;;;;;;;;9.30;100.00;100076.06;5016180;28;19921;-73
2023/12/24 07:08:03;;;;;;;;;;;;;;;9.33;100.00;100074.97;5030219;28;20287;-75
2023/12/24 07:10:29;;;;;;;;;;;;;;;9.29;100.00;100077.03;5030497;28;20338;-75
2023/12/24 07:12:54;;;;;;;;;;;;;;;9.32;100.00;100076.78;5025574;28;19920;-74
2023/12/24 07:15:19;;;;;;;;;;;;;;;9.32;100.00;100071.41;5028824;28;20381;-75
2023/12/24 07:17:44;;;;;;;;;;;;;;;9.34;100.00;100065.94;5028656;28;20381;-75
2023/12/24 07:20:11;;;;;;;;;;;;;;;9.33;100.00;100065.06;5024683;28;19932;-75
2023/12/24 07:22:36;;;;;;;;;;;;;;;9.35;100.00;100062.28;5027414;28;19925;-75
2023/12/24 07:25:01;;;;;;;;;;;;;;;9.37;100.00;100055.81;5032136;28;20259;-73
2023/12/24 07:27:26;;;;;;;;;;;;;;;9.42;100.00;100055.41;5029680;28;19928;-74
2023/12/24 07:29:51;;;;;;;;;;;;;;;9.42;100.00;100064.31;5028822;28;19917;-75
2023/12/24 07:32:17;;;;;;;;;;;;;;;9.43;100.00;100049.94;5028270;28;20025;-73
2023/12/24 07:34:42;;;;;;;;;;;;;;;9.45;100.00;100055.13;5024088;28;19927;-74
2023/12/24 07:37:07;;;;;;;;;;;;;;;9.43;100.00;100049.94;5025559;28;20270;-75
2023/12/24 07:39:33;;;;;;;;;;;;;;;9.44;100.00;100050.75;5029620;28;19925;-74
2023/12/24 07:41:58;;;;;;;;;;;;;;;9.46;100.00;100048.81;5030155;28;19929;-75
2023/12/24 07:44:24;;;;;;;;;;;;;;;9.48;100.00;100046.00;5025106;28;19998;-75
2023/12/24 07:46:49;;;;;;;;;;;;;;;9.50;100.00;100046.72;5034931;28;19994;-75
2023/12/24 07:49:14;;;;;;;;;;;;;;;9.50;100.00;100050.25;5031343;28;20374;-73
2023/12/24 07:51:41;;;;;;;;;;;;;;;9.52;100.00;100050.13;5031836;28;20006;-75
2023/12/24 07:54:06;;;;;;;;;;;;;;;9.53;100.00;100041.09;5031503;28;20290;-74
2023/12/24 07:56:31;;;;;;;;;;;;;;;9.52;100.00;100048.28;5027080;28;20382;-75
2023/12/24 07:58:56;;;;;;;;;;;;;;;9.53;100.00;100036.59;5023473;28;20006;-74
2023/12/24 08:01:21;;;;;;;;;;;;;;;9.54;100.00;100024.03;5007047;28;20392;-75
2023/12/24 08:03:47;;;;;;;;;;;;;;;9.52;100.00;100034.88;5007898;28;20822;-75
2023/12/24 08:06:12;;;;;;;;;;;;;;;9.54;100.00;100032.06;5011261;28;20255;-74
2023/12/24 08:08:37;;;;;;;;;;;;;;;9.56;100.00;100033.66;5021666;28;20012;-73
2023/12/24 08:11:02;;;;;;;;;;;;;;;9.55;100.00;100039.13;5023086;28;19925;-73
2023/12/24 08:13:28;;;;;;;;;;;;;;;9.56;100.00;100028.28;5022887;28;19921;-74
2023/12/24 08:15:53;;;;;;;;;;;;;;;9.57;100.00;100046.06;5037728;28;20550;-73
2023/12/24 08:18:18;;;;;;;;;;;;;;;9.60;100.00;100047.63;5025228;28;19920;-74
2023/12/24 08:20:43;;;;;;;;;;;;;;;9.63;100.00;100042.00;5023780;28;20565;-74
2023/12/24 08:23:10;;;;;;;;;;;;;;;9.60;100.00;100040.44;5024043;28;20179;-73
2023/12/24 08:25:36;;;;;;;;;;;;;;;9.66;100.00;100036.38;5024890;28;20402;-73
2023/12/24 08:28:01;;;;;;;;;;;;;;;9.64;100.00;100032.13;5021211;28;19968;-73
2023/12/24 08:30:27;;;;;;;;;;;;;;;9.65;100.00;100036.50;5024842;28;19921;-75
2023/12/24 08:32:52;;;;;;;;;;;;;;;9.70;100.00;100028.91;5007805;28;20287;-73
2023/12/24 08:35:17;;;;;;;;;;;;;;;9.70;100.00;100029.75;5019190;28;19964;-70
2023/12/24 08:37:42;;;;;;;;;;;;;;;9.66;100.00;100036.38;5020016;28;20403;-75
2023/12/24 08:40:08;;;;;;;;;;;;;;;9.71;100.00;100027.91;5024860;28;20700;-76
2023/12/24 08:42:33;;;;;;;;;;;;;;;9.71;100.00;100049.34;5025950;28;19921;-77
2023/12/24 08:44:58;;;;;;;;;;;;;;;9.70;100.00;100045.84;5020539;28;19970;-75
2023/12/24 08:47:24;;;;;;;;;;;;;;;9.70;100.00;100048.53;5026695;28;19920;-75
2023/12/24 08:49:49;;;;;;;;;;;;;;;9.72;100.00;100049.25;5027788;28;19924;-75
2023/12/24 08:52:14;;;;;;;;;;;;;;;9.72;100.00;100046.56;5030456;28;19921;-72
2023/12/24 08:54:39;;;;;;;;;;;;;;;9.71;100.00;100047.53;5023501;28;19924;-74
2023/12/24 08:57:05;;;;;;;;;;;;;;;9.70;100.00;100048.53;5028050;28;19955;-74
2023/12/24 08:59:31;;;;;;;;;;;;;;;9.70;100.00;100050.34;5024167;28;19920;-73
2023/12/24 09:01:56;;;;;;;;;;;;;;;9.72;100.00;100051.94;5019424;28;19929;-74
2023/12/24 09:04:21;;;;;;;;;;;;;;;9.74;100.00;100055.31;5021995;28;20355;-72
2023/12/24 09:06:46;;;;;;;;;;;;;;;9.72;100.00;100069.81;5022254;28;19921;-75
2023/12/24 09:09:12;;;;;;;;;;;;;;;9.78;100.00;100073.81;5027293;28;19987;-74
2023/12/24 09:11:37;;;;;;;;;;;;;;;9.79;100.00;100068.31;5030777;28;19917;-73
2023/12/24 09:14:03;;;;;;;;;;;;;;;9.79;100.00;100056.75;5021014;28;20213;-72
2023/12/24 09:16:28;;;;;;;;;;;;;;;9.82;100.00;100068.06;5024380;28;19959;-74
2023/12/24 09:18:53;;;;;;;;;;;;;;;9.81;100.00;100061.00;5030278;28;20007;-73
2023/12/24 09:21:18;;;;;;;;;;;;;;;9.83;100.00;100056.34;5024205;28;20314;-73
2023/12/24 09:23:44;;;;;;;;;;;;;;;9.81;100.00;100062.81;5013659;28;20754;-74
2023/12/24 09:26:09;;;;;;;;;;;;;;;9.83;100.00;100056.34;5019647;28;19968;-72
2023/12/24 09:28:34;;;;;;;;;;;;;;;9.83;100.00;100055.47;5022016;28;19920;-74
2023/12/24 09:30:59;;;;;;;;;;;;;;;9.84;100.00;100052.69;5027141;28;20012;-73
2023/12/24 09:33:25;;;;;;;;;;;;;;;9.88;100.00;100043.41;5024682;28;19924;-73
2023/12/24 09:35:50;;;;;;;;;;;;;;;9.88;100.00;100045.22;5022505;28;19925;-74
2023/12/24 09:38:15;;;;;;;;;;;;;;;9.93;100.00;100040.31;5022122;28;19921;-74
2023/12/24 09:40:40;;;;;;;;;;;;;;;9.90;100.00;100038.75;5022656;28;19979;-75
2023/12/24 09:43:05;;;;;;;;;;;;;;;9.89;100.00;100031.69;5027294;28;20286;-74
2023/12/24 09:45:31;;;;;;;;;;;;;;;9.88;100.00;100032.66;5026748;28;19971;-74
2023/12/24 09:47:56;;;;;;;;;;;;;;;9.89;100.00;100029.00;5023572;28;19920;-74
2023/12/24 09:50:22;;;;;;;;;;;;;;;9.91;100.00;100039.59;5022668;28;19925;-73
2023/12/24 09:52:47;;;;;;;;;;;;;;;9.89;100.00;100036.19;5024668;28;20417;-73
2023/12/24 09:55:12;;;;;;;;;;;;;;;9.93;100.00;100042.16;5019021;28;19924;-73
2023/12/24 09:57:38;;;;;;;;;;;;;;;9.95;100.00;100032.97;5025625;28;19938;-73
2023/12/24 10:00:08;;;;;;;;;;;;;;;9.94;100.00;100033.09;5019212;28;20112;-74
2023/12/24 10:02:33;;;;;;;;;;;;;;;9.98;100.00;100038.06;5026266;28;20015;-73
2023/12/24 10:04:59;;;;;;;;;;;;;;;9.96;100.00;100031.13;5027657;28;19974;-74
2023/12/24 10:07:28;;;;;;;;;;;;;;;9.99;100.00;100038.91;5023335;28;20019;-73
2023/12/24 10:09:53;;;;;;;;;;;;;;;9.99;100.00;100018.31;5022242;28;20410;-73
2023/12/24 10:12:18;;;;;;;;;;;;;;;10.02;100.00;100030.59;5025823;28;20011;-74
2023/12/24 10:15:04;;;;;;;;;;;;;;;10.00;100.00;100027.19;5022014;28;20641;-74
2023/12/24 10:17:35;;;;;;;;;;;;;;;10.04;100.00;100026.81;5031594;28;20386;-74
2023/12/24 10:20:02;;;;;;;;;;;;;;;10.08;100.00;100023.81;5028836;28;20322;-74
2023/12/24 10:22:27;;;;;;;;;;;;;;;10.16;100.00;100022.19;5029942;28;19994;-73
2023/12/24 10:25:02;;;;;;;;;;;;;;;10.17;100.00;100025.69;5026978;28;19964;-73
2023/12/24 10:27:27;;;;;;;;;;;;;;;10.21;100.00;100033.31;5027592;28;19920;-74
2023/12/24 10:29:53;;;;;;;;;;;;;;;10.24;100.00;100026.00;5022362;28;20453;-73
2023/12/24 10:32:24;;;;;;;;;;;;;;;10.28;100.00;100025.59;5027933;28;20355;-73
2023/12/24 10:34:58;;;;;;;;;;;;;;;10.32;100.00;100024.34;5023344;28;19927;-74
2023/12/24 10:37:29;;;;;;;;;;;;;;;10.44;100.00;100034.97;5026501;28;20445;-73
2023/12/24 10:39:54;;;;;;;;;;;;;;;10.46;100.00;100047.25;5027699;28;19920;-73
2023/12/24 10:42:19;;;;;;;;;;;;;;;10.42;100.00;100048.53;5029694;28;19951;-73
2023/12/24 10:44:45;;;;;;;;;;;;;;;10.48;100.00;100042.59;5027788;28;19960;-71
2023/12/24 10:47:10;;;;;;;;;;;;;;;10.52;100.00;100043.19;5024367;28;19925;-73
2023/12/24 10:49:36;;;;;;;;;;;;;;;10.55;100.00;100039.34;5029065;28;19921;-73
2023/12/24 10:52:01;;;;;;;;;;;;;;;10.57;100.00;100046.31;5029210;28;19920;-73
2023/12/24 10:54:27;;;;;;;;;;;;;;;10.65;100.00;100046.44;5029161;28;19932;-73
2023/12/24 10:56:58;;;;;;;;;;;;;;;10.66;100.00;100044.63;5034243;28;19924;-72
2023/12/24 10:59:27;;;;;;;;;;;;;;;10.71;100.00;100047.75;5035245;28;21748;-72
2023/12/24 11:01:53;;;;;;;;;;;;;;;10.73;100.00;100052.94;5036007;28;20066;-73
2023/12/24 11:04:37;;;;;;;;;;;;;;;10.79;100.00;100060.44;5037074;28;19920;-73
2023/12/24 11:07:05;;;;;;;;;;;;;;;10.83;100.00;100063.69;5029476;28;19932;-71
2023/12/24 11:09:30;;;;;;;;;;;;;;;10.92;100.00;100061.00;5024623;28;20012;-73
2023/12/24 11:11:55;;;;;;;;;;;;;;;10.85;100.00;100069.78;5035100;28;20035;-73
2023/12/24 11:14:36;;;;;;;;;;;;;;;10.82;100.00;100076.28;5031053;28;20338;-73
2023/12/24 11:17:02;;;;;;;;;;;;;;;10.86;100.00;100075.00;5032116;28;20252;-74
2023/12/24 11:19:27;;;;;;;;;;;;;;;10.86;100.00;100077.69;5030376;28;20019;-73
2023/12/24 11:22:06;;;;;;;;;;;;;;;10.94;100.00;100085.88;5034565;28;19978;-72
2023/12/24 11:24:31;;;;;;;;;;;;;;;10.90;100.00;100095.22;5026355;28;19920;-73
2023/12/24 11:26:57;;;;;;;;;;;;;;;10.86;100.00;100092.97;5031132;28;20244;-73
2023/12/24 11:29:49;;;;;;;;;;;;;;;10.84;100.00;100086.88;5029329;28;19925;-74
2023/12/24 11:32:26;;;;;;;;;;;;;;;10.85;100.00;100085.88;5028743;28;19928;-70
2023/12/24 11:34:51;;;;;;;;;;;;;;;10.86;100.00;100082.22;5026820;28;19917;-73
2023/12/24 11:37:26;;;;;;;;;;;;;;;10.79;100.00;100082.75;5024478;28;19927;-73
2023/12/24 11:39:58;;;;;;;;;;;;;;;10.82;100.00;100075.44;5040499;28;20335;-73
2023/12/24 11:42:37;;;;;;;;;;;;;;;10.79;100.00;100063.97;5031076;28;19932;-73
2023/12/24 11:45:02;;;;;;;;;;;;;;;10.77;100.00;100057.06;5027295;28;19925;-73
2023/12/24 11:47:28;;;;;;;;;;;;;;;10.79;100.00;100044.34;5030110;28;19932;-73
2023/12/24 11:49:53;;;;;;;;;;;;;;;10.71;100.00;100015.53;5032391;28;20536;-73
2023/12/24 11:52:18;;;;;;;;;;;;;;;10.67;100.00;99998.00;5031314;28;19956;-73
2023/12/24 11:54:43;;;;;;;;;;;;;;;10.68;100.00;99971.97;5023879;28;20020;-73
2023/12/24 11:57:11;;;;;;;;;;;;;;;10.66;100.00;99947.97;5027517;28;19921;-73
2023/12/24 11:59:36;;;;;;;;;;;;;;;10.68;100.00;99904.88;5037702;28;19963;-73
2023/12/24 12:02:04;;;;;;;;;;;;;;;10.64;100.00;99889.03;5037066;28;19929;-74
2023/12/24 12:04:29;;;;;;;;;;;;;;;10.62;100.00;99882.13;5035565;28;19920;-73
2023/12/24 12:06:54;;;;;;;;;;;;;;;10.63;100.00;99868.56;5028143;28;19921;-74
2023/12/24 12:09:20;;;;;;;;;;;;;;;10.60;100.00;99847.38;5024020;28;19956;-73
2023/12/24 12:11:47;;;;;;;;;;;;;;;10.61;100.00;99832.94;5005258;28;19921;-73
2023/12/24 12:14:12;;;;;;;;;;;;;;;10.62;100.00;99796.25;5022512;28;19986;-73
2023/12/24 12:16:37;;;;;;;;;;;;;;;10.54;100.00;99763.91;5020947;28;19965;-73
2023/12/24 12:19:02;;;;;;;;;;;;;;;10.59;100.00;99769.69;5022025;28;19925;-73
2023/12/24 12:21:28;;;;;;;;;;;;;;;10.63;100.00;99768.41;5025042;28;19960;-73
2023/12/24 12:23:53;;;;;;;;;;;;;;;10.60;100.00;99771.38;5022471;28;19956;-73
2023/12/24 12:26:18;;;;;;;;;;;;;;;10.45;100.00;99758.44;5024836;28;20007;-73
2023/12/24 12:28:43;;;;;;;;;;;;;;;10.58;100.00;99784.97;5022921;28;19921;-73